Time;durP1;ratioP1;P1;durP2;ratioP2;P2;SDS_P1;SDS_P2;PMS_P1;PMS_P2;Temp;Humidity;BMP_temperature;BMP_pressure;BME280_temperature;BME280_humidity;BME280_pressure;Samples;Min_cycle;Max_cycle;Signal;HPM_P1;HPM_P2
2020/12/24 00:00:37;;;;;;;28.05;12.55;;;;;;;7.53;84.67;99291.71;1709704;84;21178;-89
2020/12/24 00:03:04;;;;;;;38.90;15.65;;;;;;;7.53;84.48;99292.16;1720641;83;21180;-89
2020/12/24 00:05:33;;;;;;;27.20;13.30;;;;;;;7.55;84.41;99298.17;1711444;83;21214;-90
2020/12/24 00:08:00;;;;;;;29.75;13.28;;;;;;;7.53;84.55;99298.63;1732012;81;21364;-89
2020/12/24 00:10:28;;;;;;;35.52;14.35;;;;;;;7.57;84.29;99301.16;1734310;82;21201;-89
2020/12/24 00:12:55;;;;;;;36.45;15.25;;;;;;;7.57;84.19;99302.89;1718989;83;21212;-88
2020/12/24 00:15:23;;;;;;;29.23;14.43;;;;;;;7.59;84.31;99308.91;1666711;81;21180;-88
2020/12/24 00:17:51;;;;;;;29.57;14.30;;;;;;;7.63;84.25;99310.59;1644574;86;21246;-90
2020/12/24 00:20:18;;;;;;;31.57;15.13;;;;;;;7.65;84.24;99302.82;1679079;84;21542;-89
2020/12/24 00:22:45;;;;;;;31.10;14.75;;;;;;;7.63;83.97;99305.42;1683485;84;21167;-88
2020/12/24 00:25:13;;;;;;;29.18;14.05;;;;;;;7.61;84.01;99296.81;1651097;85;21233;-87
2020/12/24 00:27:40;;;;;;;34.43;15.32;;;;;;;7.60;83.87;99287.35;1625952;87;21953;-89
2020/12/24 00:30:10;;;;;;;30.90;15.43;;;;;;;7.59;84.12;99284.33;1691947;84;21232;-89
2020/12/24 00:32:38;;;;;;;31.40;15.00;;;;;;;7.53;83.74;99281.80;1694973;80;21245;-86
2020/12/24 00:35:06;;;;;;;34.45;16.17;;;;;;;7.47;83.97;99286.59;1668954;83;21220;-87
2020/12/24 00:37:34;;;;;;;37.35;18.65;;;;;;;7.45;84.41;99290.08;1705375;83;21225;-89
2020/12/24 00:40:04;;;;;;;34.53;16.10;;;;;;;7.42;84.26;99276.75;1746938;81;21188;-90
2020/12/24 00:42:31;;;;;;;26.97;13.30;;;;;;;7.40;83.87;99278.48;1657488;81;21184;-91
2020/12/24 00:44:59;;;;;;;34.55;16.07;;;;;;;7.36;83.81;99277.66;1671915;84;21214;-89
2020/12/24 00:47:26;;;;;;;31.23;13.38;;;;;;;7.35;83.43;99280.25;1637762;86;21714;-89
2020/12/24 00:49:54;;;;;;;32.73;16.05;;;;;;;7.34;83.57;99279.41;1666809;85;21191;-90
2020/12/24 00:52:21;;;;;;;31.62;16.00;;;;;;;7.29;84.36;99278.57;1675838;83;21229;-89
2020/12/24 00:54:49;;;;;;;42.78;17.75;;;;;;;7.33;84.64;99270.36;1665743;84;21191;-88
2020/12/24 00:57:16;;;;;;;33.45;14.68;;;;;;;7.35;84.37;99281.09;1683201;84;21265;-89
2020/12/24 00:59:45;;;;;;;28.87;12.18;;;;;;;7.36;84.76;99278.95;1683314;81;22060;-89
2020/12/24 01:02:12;;;;;;;33.67;13.32;;;;;;;7.41;84.50;99276.75;1710330;81;21605;-91
2020/12/24 01:04:39;;;;;;;30.65;13.00;;;;;;;7.46;84.70;99281.43;1714369;81;21785;-90
2020/12/24 01:07:07;;;;;;;28.92;12.25;;;;;;;7.50;84.60;99271.47;1712038;81;21700;-87
2020/12/24 01:09:34;;;;;;;35.10;14.33;;;;;;;7.55;84.62;99271.00;1736482;80;21255;-91
2020/12/24 01:12:03;;;;;;;27.77;13.15;;;;;;;7.60;84.52;99266.66;1732966;81;21950;-90
2020/12/24 01:14:30;;;;;;;34.58;13.98;;;;;;;7.67;84.49;99266.99;1737582;81;21205;-89
2020/12/24 01:16:57;;;;;;;27.98;13.08;;;;;;;7.71;84.46;99266.53;1703980;82;21187;-88
2020/12/24 01:19:25;;;;;;;27.90;14.07;;;;;;;7.77;84.27;99266.45;1724770;82;21572;-87
2020/12/24 01:21:52;;;;;;;30.82;14.38;;;;;;;7.79;84.13;99268.59;1698991;83;21224;-87
2020/12/24 01:24:19;;;;;;;32.00;16.07;;;;;;;7.81;84.04;99267.28;1735427;82;21500;-89
2020/12/24 01:26:49;;;;;;;32.30;14.43;;;;;;;7.81;83.97;99261.67;1726440;82;21165;-90
2020/12/24 01:29:17;;;;;;;31.20;12.93;;;;;;;7.82;83.69;99252.16;1754606;80;21098;-85
2020/12/24 01:31:48;;;;;;;28.87;13.45;;;;;;;7.79;84.03;99249.62;1703205;82;21276;-86
2020/12/24 01:34:20;;;;;;;26.30;12.53;;;;;;;7.75;84.39;99250.09;1694125;82;21215;-90
2020/12/24 01:36:47;;;;;;;25.60;12.65;;;;;;;7.74;84.27;99249.24;1713970;79;21169;-88
2020/12/24 01:39:15;;;;;;;28.32;13.40;;;;;;;7.72;84.03;99251.44;1737208;81;21235;-87
2020/12/24 01:41:42;;;;;;;26.23;13.00;;;;;;;7.71;84.33;99256.17;1708004;80;21173;-88
2020/12/24 01:44:10;;;;;;;24.55;13.55;;;;;;;7.69;84.20;99257.48;1747077;81;21180;-91
2020/12/24 01:46:37;;;;;;;30.72;12.50;;;;;;;7.66;84.29;99248.47;1715293;81;21493;-88
2020/12/24 01:49:07;;;;;;;30.10;12.70;;;;;;;7.61;84.35;99245.06;1677386;81;21362;-88
2020/12/24 01:51:35;;;;;;;27.73;11.75;;;;;;;7.61;84.46;99238.59;1718591;82;21541;-89
2020/12/24 01:54:03;;;;;;;34.60;13.85;;;;;;;7.64;83.96;99234.70;1676558;82;21665;-89
2020/12/24 01:56:31;;;;;;;24.72;11.75;;;;;;;7.52;83.91;99208.93;1711131;81;21683;-88
2020/12/24 01:59:00;;;;;;;27.00;12.58;;;;;;;7.66;84.51;99226.48;1765827;79;21170;-87
2020/12/24 02:01:27;;;;;;;27.40;12.03;;;;;;;7.69;84.08;99222.55;1766650;79;21196;-91
2020/12/24 02:03:55;;;;;;;27.15;12.15;;;;;;;7.70;84.28;99209.16;1749335;81;21229;-91
2020/12/24 02:06:22;;;;;;;26.15;11.95;;;;;;;7.72;84.29;99195.80;1727574;82;21220;-92
2020/12/24 02:08:53;;;;;;;30.92;12.85;;;;;;;7.74;84.32;99203.11;1685837;81;21189;-91
2020/12/24 02:11:21;;;;;;;30.48;13.00;;;;;;;7.74;84.27;99205.69;1676675;81;21620;-88
2020/12/24 02:13:48;;;;;;;26.05;12.10;;;;;;;7.76;84.24;99202.65;1672768;84;21647;-89
2020/12/24 02:16:16;;;;;;;26.80;11.90;;;;;;;7.74;84.41;99200.06;1684780;83;21189;-91
2020/12/24 02:18:43;;;;;;;28.77;14.20;;;;;;;7.77;84.24;99196.13;1687033;82;21628;-88
2020/12/24 02:21:10;;;;;;;28.02;13.72;;;;;;;7.76;84.26;99190.55;1711503;82;21392;-88
2020/12/24 02:23:38;;;;;;;26.40;13.53;;;;;;;7.75;84.11;99174.59;1687017;83;21223;-88
2020/12/24 02:26:05;;;;;;;31.00;13.58;;;;;;;7.70;84.03;99169.93;1705720;82;21152;-87
2020/12/24 02:28:34;;;;;;;26.70;13.32;;;;;;;7.67;84.13;99172.98;1720404;80;21597;-89
2020/12/24 02:31:04;;;;;;;27.70;14.18;;;;;;;7.64;84.09;99180.36;1725580;82;21161;-91
2020/12/24 02:33:31;;;;;;;24.82;12.50;;;;;;;7.59;84.12;99184.72;1699336;82;22406;-89
2020/12/24 02:35:58;;;;;;;30.05;14.60;;;;;;;7.58;84.20;99173.97;1717607;82;21190;-88
2020/12/24 02:38:26;;;;;;;26.75;13.10;;;;;;;7.55;84.31;99176.57;1677420;84;21196;-88
2020/12/24 02:40:53;;;;;;;26.33;11.85;;;;;;;7.52;84.16;99173.59;1666646;83;21218;-86
2020/12/24 02:43:21;;;;;;;23.85;11.45;;;;;;;7.50;83.95;99166.29;1691250;83;21265;-89
2020/12/24 02:45:48;;;;;;;28.25;12.65;;;;;;;7.51;83.61;99171.86;1698131;83;21611;-91
2020/12/24 02:48:15;;;;;;;26.73;12.60;;;;;;;7.50;84.36;99174.46;1683180;84;21667;-89
2020/12/24 02:50:43;;;;;;;24.45;11.38;;;;;;;7.51;84.41;99176.19;1675304;84;21203;-89
2020/12/24 02:53:10;;;;;;;21.60;11.55;;;;;;;7.53;84.26;99170.56;1674696;84;21192;-90
2020/12/24 02:55:38;;;;;;;27.58;11.53;;;;;;;7.53;84.36;99167.52;1674457;84;21206;-88
2020/12/24 02:58:05;;;;;;;24.60;11.30;;;;;;;7.57;84.38;99148.95;1676025;84;21224;-90
2020/12/24 03:00:32;;;;;;;25.57;10.53;;;;;;;7.57;84.71;99137.31;1673710;84;21540;-88
2020/12/24 03:03:00;;;;;;;21.02;10.25;;;;;;;7.57;84.82;99131.69;1673772;84;21219;-85
2020/12/24 03:05:27;;;;;;;23.45;10.30;;;;;;;7.62;84.61;99132.95;1671819;85;21219;-92
2020/12/24 03:07:54;;;;;;;25.50;10.28;;;;;;;7.67;84.46;99145.81;1673547;84;21226;-89
2020/12/24 03:10:22;;;;;;;17.32;8.88;;;;;;;7.69;84.49;99135.85;1678496;84;21192;-88
2020/12/24 03:12:49;;;;;;;22.82;10.53;;;;;;;7.73;84.41;99143.99;1673222;84;21687;-92
2020/12/24 03:15:17;;;;;;;21.90;9.48;;;;;;;7.80;84.26;99143.91;1676548;84;21167;-87
2020/12/24 03:17:44;;;;;;;21.37;10.48;;;;;;;7.83;84.22;99136.12;1673182;84;21317;-90
2020/12/24 03:20:13;;;;;;;24.45;12.23;;;;;;;7.85;84.16;99128.75;1677167;82;21639;-85
2020/12/24 03:22:40;;;;;;;22.82;11.03;;;;;;;7.90;83.80;99123.53;1667291;84;21208;-89
2020/12/24 03:25:08;;;;;;;22.55;11.60;;;;;;;7.86;83.79;99117.95;1656737;84;21275;-88
2020/12/24 03:27:35;;;;;;;22.52;11.08;;;;;;;7.81;83.81;99106.81;1679662;84;21197;-89
2020/12/24 03:30:06;;;;;;;20.05;10.15;;;;;;;7.84;83.65;99096.41;1657038;84;21203;-89
2020/12/24 03:32:36;;;;;;;21.05;10.90;;;;;;;7.87;83.46;99097.67;1751942;80;21173;-89
2020/12/24 03:35:08;;;;;;;18.73;9.25;;;;;;;7.86;83.13;99095.95;1735108;81;21132;-87
2020/12/24 03:37:36;;;;;;;23.00;9.28;;;;;;;7.81;83.50;99095.17;1698787;80;21165;-88
2020/12/24 03:40:04;;;;;;;19.75;9.90;;;;;;;7.83;83.33;99088.23;1689165;84;21268;-87
2020/12/24 03:42:32;;;;;;;20.43;9.73;;;;;;;7.84;83.37;99081.75;1636866;83;21657;-89
2020/12/24 03:44:59;;;;;;;20.92;10.32;;;;;;;7.80;83.53;99084.39;1618271;87;21234;-88
2020/12/24 03:47:26;;;;;;;24.00;10.40;;;;;;;7.81;83.36;99079.64;1647524;85;21157;-87
2020/12/24 03:49:54;;;;;;;18.73;9.25;;;;;;;7.77;83.50;99071.91;1628786;85;21177;-86
2020/12/24 03:52:21;;;;;;;19.73;9.25;;;;;;;7.84;83.45;99071.81;1659897;85;21150;-89
2020/12/24 03:54:49;;;;;;;21.33;9.00;;;;;;;7.83;83.44;99071.42;1652096;85;21200;-86
2020/12/24 03:57:16;;;;;;;19.05;9.60;;;;;;;7.82;83.22;99060.22;1664585;84;21188;-87
2020/12/24 03:59:43;;;;;;;19.00;9.40;;;;;;;7.85;83.13;99055.42;1659735;86;21201;-90
2020/12/24 04:02:11;;;;;;;24.80;10.55;;;;;;;7.87;82.89;99052.38;1654114;86;21229;-88
2020/12/24 04:04:38;;;;;;;17.65;9.13;;;;;;;7.94;82.63;99052.71;1652935;84;21252;-90
2020/12/24 04:07:05;;;;;;;17.70;9.25;;;;;;;7.90;82.60;99052.34;1657250;84;21192;-89
2020/12/24 04:09:32;;;;;;;18.75;8.73;;;;;;;7.91;82.52;99048.41;1659632;85;21228;-89
2020/12/24 04:12:00;;;;;;;15.45;7.70;;;;;;;7.93;82.44;99050.98;1662024;85;21209;-88
2020/12/24 04:14:27;;;;;;;16.87;7.95;;;;;;;7.94;82.32;99046.23;1658108;85;21212;-90
2020/12/24 04:16:54;;;;;;;18.00;8.63;;;;;;;8.02;82.17;99047.39;1658508;84;21196;-90
2020/12/24 04:19:22;;;;;;;14.73;7.60;;;;;;;8.04;82.05;99051.69;1635480;86;21255;-90
2020/12/24 04:21:49;;;;;;;16.00;8.40;;;;;;;8.08;81.97;99048.17;1664310;85;21312;-87
2020/12/24 04:24:17;;;;;;;17.00;8.23;;;;;;;8.12;81.69;99060.19;1668599;84;21216;-88
2020/12/24 04:26:44;;;;;;;16.82;8.43;;;;;;;8.18;81.35;99059.23;1645309;85;21518;-88
2020/12/24 04:29:12;;;;;;;16.15;7.97;;;;;;;8.26;81.52;99061.70;1661828;84;21197;-90
2020/12/24 04:31:43;;;;;;;20.25;9.80;;;;;;;8.34;81.90;99077.53;1654257;85;21231;-88
2020/12/24 04:34:10;;;;;;;16.65;8.90;;;;;;;8.35;80.65;99062.83;1745273;81;21155;-91
2020/12/24 04:36:37;;;;;;;16.87;8.43;;;;;;;8.35;80.76;99057.66;1752325;81;21308;-91
2020/12/24 04:39:05;;;;;;;16.93;7.72;;;;;;;8.48;80.78;99063.53;1722927;78;21344;-91
2020/12/24 04:41:35;;;;;;;17.35;8.80;;;;;;;8.50;80.47;99072.98;1703752;79;21207;-91
2020/12/24 04:44:02;;;;;;;16.25;7.65;;;;;;;8.51;79.75;99073.38;1747571;80;21267;-85
2020/12/24 04:46:33;;;;;;;13.93;7.30;;;;;;;8.55;80.06;99067.70;1708333;79;21212;-91
2020/12/24 04:49:01;;;;;;;19.23;8.20;;;;;;;8.55;79.64;99061.23;1653296;78;21192;-90
2020/12/24 04:51:33;;;;;;;12.43;6.47;;;;;;;8.61;79.89;99060.27;1621448;82;21307;31
2020/12/24 04:54:03;;;;;;;13.20;6.53;;;;;;;8.66;79.29;99079.20;1766105;79;21783;-90
2020/12/24 04:56:31;;;;;;;15.72;7.90;;;;;;;8.71;79.28;99070.47;1702397;80;21149;-88
2020/12/24 04:58:59;;;;;;;15.13;7.00;;;;;;;8.80;78.75;99066.00;1687559;83;21205;-87
2020/12/24 05:01:27;;;;;;;14.87;7.45;;;;;;;8.85;78.96;99065.00;1682134;83;21279;-86
2020/12/24 05:03:56;;;;;;;16.48;7.37;;;;;;;8.89;78.65;99067.98;1691926;83;21171;-85
2020/12/24 05:06:24;;;;;;;12.88;6.75;;;;;;;8.96;77.48;99072.14;1697277;83;21207;-91
2020/12/24 05:08:57;;;;;;;15.98;7.37;;;;;;;9.04;77.18;99075.05;1703229;83;21832;-89
2020/12/24 05:11:33;;;;;;;12.23;6.10;;;;;;;9.12;77.06;99078.34;1832545;75;22941;-92
2020/12/24 05:14:20;;;;;;;13.10;7.25;;;;;;;9.08;77.21;99080.59;1761766;77;21192;-93
2020/12/24 05:17:06;;;;;;;15.53;6.53;;;;;;;8.84;77.50;99037.83;1681431;81;21141;-89
2020/12/24 05:22:37;;;;;;;14.23;6.65;;;;;;;9.09;76.96;99084.88;1662206;85;21185;-91
2020/12/24 05:25:11;;;;;;;16.00;7.92;;;;;;;9.18;76.76;99081.27;1639017;87;21176;-91
2020/12/24 05:27:39;;;;;;;16.48;7.50;;;;;;;9.21;77.47;99083.37;1662195;84;21193;-91
2020/12/24 05:30:06;;;;;;;13.38;7.60;;;;;;;9.25;76.93;99086.73;1652262;86;21205;-92
2020/12/24 05:32:34;;;;;;;16.65;7.80;;;;;;;9.26;76.45;99072.89;1648464;86;21607;-89
2020/12/24 05:35:10;;;;;;;16.87;7.37;;;;;;;9.27;76.94;99074.16;1643966;84;21223;-88
2020/12/24 05:37:46;;;;;;;12.63;6.75;;;;;;;9.34;76.47;99070.54;1784532;79;22925;-87
2020/12/24 05:40:25;;;;;;;15.03;7.08;;;;;;;9.27;76.67;99073.28;1695817;78;21189;-90
2020/12/24 05:43:01;;;;;;;14.78;6.72;;;;;;;9.31;76.91;99069.73;1765333;77;21904;-90
2020/12/24 05:46:18;;;;;;;13.30;6.87;;;;;;;9.34;76.99;99067.09;1762202;78;21224;-92
2020/12/24 05:48:46;;;;;;;13.48;7.00;;;;;;;9.39;76.71;99066.98;1760003;80;21316;-93
2020/12/24 05:51:19;;;;;;;14.05;7.53;;;;;;;9.46;75.64;99073.77;1772623;79;21324;-89
2020/12/24 05:53:48;;;;;;;15.15;7.42;;;;;;;9.52;76.01;99071.05;1776510;80;21112;-86
2020/12/24 05:56:22;;;;;;;13.28;7.62;;;;;;;9.58;75.74;99071.36;1776772;80;21144;-87
2020/12/24 05:59:03;;;;;;;14.40;8.15;;;;;;;9.65;75.47;99073.80;1879309;76;23333;-92
2020/12/24 06:01:40;;;;;;;17.00;8.83;;;;;;;9.65;76.55;99084.60;1648701;85;21183;-89
2020/12/24 06:04:09;;;;;;;26.95;11.93;;;;;;;9.59;75.82;99077.83;1668703;85;21471;-85
2020/12/24 06:06:46;;;;;;;20.00;10.13;;;;;;;9.52;76.21;99081.42;1672880;83;21307;-85
2020/12/24 06:09:20;;;;;;;23.45;9.85;;;;;;;9.44;76.28;99078.14;1686230;82;21346;-88
2020/12/24 06:12:28;;;;;;;22.82;9.70;;;;;;;9.31;76.57;99073.21;1694701;82;21153;-88
2020/12/24 06:14:58;;;;;;;20.95;10.10;;;;;;;9.15;76.87;99071.78;1657826;85;21188;-88
2020/12/24 06:17:29;;;;;;;24.50;11.05;;;;;;;9.04;77.20;99086.27;1697172;80;21224;-87
2020/12/24 06:19:57;;;;;;;30.17;16.65;;;;;;;8.89;77.81;99074.46;1763654;79;21221;-90
2020/12/24 06:22:26;;;;;;;27.87;14.90;;;;;;;8.84;77.56;99074.98;1719113;83;21164;-86
2020/12/24 06:25:02;;;;;;;22.58;11.40;;;;;;;8.74;77.82;99071.69;1707699;81;21329;-85
2020/12/24 06:27:58;;;;;;;18.23;9.80;;;;;;;8.63;78.04;99067.58;1749476;78;21127;-90
2020/12/24 06:30:29;;;;;;;21.20;10.58;;;;;;;8.42;79.63;99072.26;1724216;83;21748;-91
2020/12/24 06:32:59;;;;;;;21.62;10.78;;;;;;;8.39;79.49;99076.15;1711586;79;21554;-91
2020/12/24 06:35:39;;;;;;;20.90;9.85;;;;;;;8.26;80.12;99076.80;1750362;81;21144;-91
2020/12/24 06:44:29;;;;;;;20.90;9.60;;;;;;;8.18;81.08;99091.61;1779470;78;21569;-88
2020/12/24 06:47:00;;;;;;;30.05;12.88;;;;;;;8.20;81.11;99085.97;1692316;80;21173;-85
2020/12/24 06:49:33;;;;;;;25.30;11.00;;;;;;;8.22;80.82;99079.48;1681245;82;21207;-88
2020/12/24 06:52:00;;;;;;;24.70;11.08;;;;;;;8.23;81.04;99088.94;1716693;78;21162;-88
2020/12/24 06:54:28;;;;;;;20.97;11.40;;;;;;;8.21;81.25;99081.19;1698201;83;21205;-88
2020/12/24 06:57:40;;;;;;;21.55;10.45;;;;;;;8.24;80.96;99085.48;1746646;79;21213;-90
2020/12/24 07:00:34;;;;;;;25.05;12.88;;;;;;;8.23;81.12;99098.00;1744809;80;21306;-88
2020/12/24 07:03:25;;;;;;;22.48;12.10;;;;;;;8.23;81.10;99084.61;1759397;81;21145;-93
2020/12/24 07:05:53;;;;;;;21.17;10.40;;;;;;;8.25;80.72;99084.59;1799291;78;21160;-92
2020/12/24 07:08:49;;;;;;;20.17;10.15;;;;;;;8.25;80.37;99094.50;1808875;78;21125;-88
2020/12/24 07:11:42;;;;;;;23.45;10.05;;;;;;;8.21;81.48;99083.78;1746833;79;21153;-92
2020/12/24 07:14:30;;;;;;;19.73;9.87;;;;;;;8.22;81.30;99084.66;1764377;77;21519;-89
2020/12/24 07:17:20;;;;;;;20.57;9.83;;;;;;;8.29;81.13;99091.43;1762402;79;21223;-89
2020/12/24 07:19:57;;;;;;;24.23;10.60;;;;;;;8.36;81.07;99091.31;1692900;84;21139;-87
2020/12/24 07:22:28;;;;;;;24.20;10.78;;;;;;;8.41;81.01;99093.84;1759587;78;22289;-89
2020/12/24 07:25:00;;;;;;;29.30;11.97;;;;;;;8.46;80.97;99093.80;1738543;81;21167;-89
2020/12/24 07:27:28;;;;;;;26.73;12.90;;;;;;;8.51;80.74;99097.14;1698407;80;21198;-91
2020/12/24 07:29:57;;;;;;;27.17;13.58;;;;;;;8.59;80.81;99086.20;1678416;84;21179;-86
2020/12/24 07:32:24;;;;;;;27.45;13.00;;;;;;;8.68;80.75;99086.51;1690899;81;21173;-90
2020/12/24 07:34:52;;;;;;;34.00;13.98;;;;;;;8.68;80.35;99086.51;1708467;82;21164;-89
2020/12/24 07:37:23;;;;;;;28.40;13.32;;;;;;;8.73;80.20;99082.08;1672349;79;21200;-91
2020/12/24 07:39:53;;;;;;;27.70;12.80;;;;;;;8.80;80.33;99081.10;1716973;81;21602;-88
2020/12/24 07:45:53;;;;;;;21.57;9.60;;;;;;;8.96;80.11;99072.14;1660987;84;21197;-90
2020/12/24 07:48:25;;;;;;;25.70;9.78;;;;;;;9.11;79.56;99064.95;1663814;80;21154;-92
2020/12/24 07:51:12;;;;;;;21.57;9.93;;;;;;;9.19;79.79;99066.98;1667034;85;21171;-90
2020/12/24 07:53:39;;;;;;;19.23;10.05;;;;;;;9.09;79.41;99036.48;1670668;85;21185;-91
2020/12/24 07:56:10;;;;;;;16.17;7.60;;;;;;;9.36;79.09;99063.58;1727421;79;21676;-91
2020/12/24 07:58:39;;;;;;;21.12;9.30;;;;;;;9.47;79.04;99061.19;1730011;81;21161;-89
2020/12/24 08:01:06;;;;;;;19.30;9.05;;;;;;;9.54;78.65;99063.63;1729608;81;21175;-92
2020/12/24 08:03:34;;;;;;;20.32;9.48;;;;;;;9.66;79.07;99063.81;1695362;82;21189;-91
2020/12/24 08:06:05;;;;;;;26.45;9.65;;;;;;;9.75;79.00;99070.11;1735835;82;21291;-88
2020/12/24 08:09:15;;;;;;;21.95;9.13;;;;;;;9.87;79.22;99070.28;1662584;82;21180;-91
2020/12/24 08:12:09;;;;;;;17.37;8.80;;;;;;;10.00;78.71;99071.30;1703646;83;21271;-92
2020/12/24 08:14:56;;;;;;;22.55;10.35;;;;;;;10.08;78.32;99065.47;1698530;80;21223;-91
2020/12/24 08:17:38;;;;;;;21.00;10.63;;;;;;;10.18;77.39;99066.11;1667596;85;21215;-91
2020/12/24 08:20:50;;;;;;;32.20;12.25;;;;;;;10.30;78.15;99063.24;1680868;81;21252;-90
2020/12/24 08:23:37;;;;;;;21.70;10.72;;;;;;;10.40;78.00;99062.13;1703871;81;21332;-89
2020/12/24 08:26:06;;;;;;;26.07;11.35;;;;;;;10.50;77.59;99066.65;1731822;80;21272;-90
2020/12/24 08:28:56;;;;;;;26.90;12.63;;;;;;;10.59;76.35;99053.88;1709957;83;21178;-85
2020/12/24 08:31:29;;;;;;;25.57;10.58;;;;;;;10.69;76.77;99059.24;1644350;87;21356;-86
2020/12/24 08:33:59;;;;;;;23.47;10.88;;;;;;;10.81;76.22;99052.41;1678168;81;21315;-95
2020/12/24 08:42:48;;;;;;;25.95;10.20;;;;;;;10.99;73.36;99042.41;1739658;80;21178;-96
2020/12/24 08:45:16;;;;;;;25.15;9.73;;;;;;;11.09;73.91;99051.66;1739747;83;21155;-96
2020/12/24 08:47:43;;;;;;;20.10;9.85;;;;;;;11.18;75.16;99043.61;1790606;80;21730;-96
2020/12/24 08:50:11;;;;;;;21.17;9.58;;;;;;;11.22;75.17;99036.55;1789346;79;21274;-96
2020/12/24 08:52:43;;;;;;;15.40;7.78;;;;;;;11.25;73.67;99039.92;1789421;80;21189;-91
2020/12/24 08:55:38;;;;;;;19.65;9.13;;;;;;;11.30;74.13;99038.05;1743144;79;21781;-94
2020/12/24 09:01:10;;;;;;;18.48;8.15;;;;;;;11.23;72.56;99032.61;1698334;84;21190;-95
2020/12/24 09:03:38;;;;;;;19.67;8.90;;;;;;;11.32;73.17;99033.65;1690088;83;21329;-95
2020/12/24 09:09:40;;;;;;;24.02;9.43;;;;;;;11.31;72.50;99025.42;1690535;78;21167;-95
2020/12/24 09:15:47;;;;;;;24.47;9.73;;;;;;;11.45;73.57;99021.57;1692426;80;21234;-94
2020/12/24 09:18:37;;;;;;;18.67;9.90;;;;;;;11.44;71.93;99024.63;1737879;83;21220;-94
2020/12/24 09:24:58;;;;;;;16.95;9.33;;;;;;;11.51;72.08;99006.61;1786347;80;21314;-93
2020/12/24 09:27:26;;;;;;;21.42;9.78;;;;;;;11.51;73.16;98996.66;1793896;79;21323;-92
2020/12/24 09:29:53;;;;;;;16.85;8.35;;;;;;;11.56;73.23;98988.27;1810633;79;21307;-92
2020/12/24 09:32:21;;;;;;;20.37;8.48;;;;;;;11.53;71.79;98985.28;1783409;80;21928;-93
2020/12/24 09:34:49;;;;;;;21.52;9.85;;;;;;;11.67;73.05;98978.80;1762533;80;21280;-91
2020/12/24 09:37:17;;;;;;;20.27;8.88;;;;;;;11.68;72.24;98976.62;1765860;79;21522;-93
2020/12/24 09:39:45;;;;;;;19.62;8.53;;;;;;;11.78;72.55;98973.24;1793493;79;21140;-92
2020/12/24 09:42:13;;;;;;;21.80;10.05;;;;;;;11.87;72.05;98968.59;1796676;79;21189;-91
2020/12/24 09:44:41;;;;;;;23.30;10.05;;;;;;;11.94;71.30;98959.72;1806741;78;21499;-92
2020/12/24 09:47:08;;;;;;;24.72;9.25;;;;;;;11.94;71.42;98957.12;1797461;79;21318;-91
2020/12/24 09:49:36;;;;;;;20.97;8.98;;;;;;;11.90;71.53;98934.67;1768714;79;21792;-93
2020/12/24 09:52:04;;;;;;;22.13;10.32;;;;;;;12.16;71.38;98955.56;1810136;79;21283;-91
2020/12/24 09:54:46;;;;;;;18.27;7.95;;;;;;;12.22;70.59;98950.14;1676641;83;21256;-92
2020/12/24 09:57:14;;;;;;;23.98;8.83;;;;;;;12.34;69.01;98951.86;1708296;84;21220;-92
2020/12/24 09:59:41;;;;;;;16.57;8.53;;;;;;;12.38;69.04;98951.77;1706142;84;21621;-93
2020/12/24 10:02:09;;;;;;;23.32;8.13;;;;;;;12.43;69.34;98948.53;1702734;83;21213;-94
2020/12/24 10:07:59;;;;;;;13.10;6.42;;;;;;;12.44;67.87;98943.27;1682091;84;21385;-92
2020/12/24 10:10:26;;;;;;;16.05;6.67;;;;;;;12.56;69.27;98939.38;1667464;84;21191;-92
2020/12/24 10:12:54;;;;;;;14.75;7.47;;;;;;;12.53;68.67;98938.17;1741768;81;21608;-92
2020/12/24 10:15:22;;;;;;;12.25;5.92;;;;;;;12.52;66.69;98932.11;1742919;81;21282;-91
2020/12/24 10:17:50;;;;;;;11.85;6.55;;;;;;;12.53;68.09;98935.13;1766195;81;21198;-92
2020/12/24 10:20:19;;;;;;;13.60;6.95;;;;;;;12.56;68.21;98924.20;1732779;83;21173;-94
2020/12/24 10:22:47;;;;;;;16.73;7.58;;;;;;;12.67;68.33;98920.72;1764067;81;21290;-93
2020/12/24 10:25:15;;;;;;;15.98;7.47;;;;;;;12.65;66.66;98918.63;1722780;82;21294;-92
2020/12/24 10:27:43;;;;;;;13.13;7.55;;;;;;;12.73;68.08;98919.19;1735190;82;21305;-92
2020/12/24 10:30:11;;;;;;;20.90;7.83;;;;;;;12.79;67.51;98916.81;1701904;84;21427;-92
2020/12/24 10:32:40;;;;;;;14.80;7.33;;;;;;;12.85;68.42;98917.89;1742701;81;21284;-93
2020/12/24 10:35:22;;;;;;;13.08;6.95;;;;;;;12.89;67.65;98912.52;1722532;83;21302;-93
2020/12/24 10:37:50;;;;;;;18.75;7.80;;;;;;;12.88;66.75;98899.53;1678568;83;21192;-94
2020/12/24 10:40:18;;;;;;;16.27;6.75;;;;;;;12.93;67.70;98892.36;1701886;83;21187;-92
2020/12/24 10:42:48;;;;;;;12.03;6.00;;;;;;;13.02;67.76;98888.11;1635912;87;21219;-94
2020/12/24 10:45:42;;;;;;;10.18;5.62;;;;;;;13.02;65.07;98887.27;1771977;79;21307;-94
2020/12/24 10:48:09;;;;;;;9.55;5.58;;;;;;;13.01;66.21;98888.16;1798440;79;21354;-93
2020/12/24 10:50:36;;;;;;;16.52;6.42;;;;;;;13.01;66.10;98881.20;1802512;79;21318;-91
2020/12/24 10:53:04;;;;;;;10.78;5.22;;;;;;;13.10;65.31;98879.98;1772458;81;21157;-91
2020/12/24 10:55:32;;;;;;;15.40;6.40;;;;;;;13.11;65.89;98877.33;1794602;79;21173;-94
2020/12/24 10:58:00;;;;;;;20.85;6.80;;;;;;;13.21;64.47;98876.52;1818109;79;21174;-92
2020/12/24 11:00:29;;;;;;;19.62;6.58;;;;;;;13.33;66.70;98867.38;1690989;82;21201;-92
2020/12/24 11:02:57;;;;;;;17.48;7.00;;;;;;;13.40;66.93;98855.76;1725569;83;21206;-91
2020/12/24 11:05:25;;;;;;;15.60;6.20;;;;;;;13.49;64.87;98855.39;1731642;82;21327;-94
2020/12/24 11:08:22;;;;;;;12.65;5.10;;;;;;;13.56;65.00;98850.76;1725423;80;21323;-93
2020/12/24 11:10:50;;;;;;;16.48;6.22;;;;;;;13.68;63.31;98848.09;1720557;81;21190;-92
2020/12/24 11:13:18;;;;;;;15.78;5.35;;;;;;;13.77;64.44;98838.58;1761768;81;21181;-93
2020/12/24 11:15:47;;;;;;;13.30;5.30;;;;;;;13.93;64.71;98838.78;1763228;81;21335;-92
2020/12/24 11:18:14;;;;;;;11.75;4.95;;;;;;;13.76;63.29;98814.66;1685625;83;21207;-91
2020/12/24 11:20:42;;;;;;;12.43;5.00;;;;;;;13.95;63.49;98830.41;1749234;80;21207;-91
2020/12/24 11:23:10;;;;;;;12.25;5.15;;;;;;;13.97;62.64;98827.28;1735723;82;21172;-94
2020/12/24 11:25:37;;;;;;;12.70;5.15;;;;;;;13.90;62.19;98817.52;1756616;81;21742;-92
2020/12/24 11:28:05;;;;;;;10.80;5.03;;;;;;;13.90;63.44;98811.45;1721136;81;21187;-92
2020/12/24 11:30:33;;;;;;;13.32;6.08;;;;;;;13.88;63.11;98813.29;1743029;81;21659;-92
2020/12/24 11:33:00;;;;;;;13.53;6.03;;;;;;;13.81;63.11;98806.19;1756656;81;21162;-91
2020/12/24 11:35:28;;;;;;;17.45;7.08;;;;;;;13.68;62.37;98782.33;1751764;81;21213;-92
2020/12/24 11:37:58;;;;;;;11.95;5.78;;;;;;;13.81;62.09;98799.65;1812851;78;21144;-91
2020/12/24 11:40:25;;;;;;;10.82;4.53;;;;;;;13.87;63.37;98798.55;1819723;78;21761;-94
2020/12/24 11:45:36;;;;;;;8.90;5.00;;;;;;;13.90;62.92;98787.47;1745142;82;21879;-93
2020/12/24 11:48:04;;;;;;;9.73;4.60;;;;;;;13.97;62.54;98777.62;1751819;81;21153;-93
2020/12/24 11:50:32;;;;;;;10.90;4.85;;;;;;;14.10;62.64;98781.37;1739539;82;21319;-93
2020/12/24 11:53:00;;;;;;;6.75;4.20;;;;;;;14.18;61.27;98775.80;1718918;82;21172;-92
2020/12/24 11:55:39;;;;;;;12.82;4.65;;;;;;;14.28;62.20;98763.16;1611927;87;21236;-91
2020/12/24 11:58:07;;;;;;;10.05;4.15;;;;;;;14.43;61.57;98752.01;1645323;87;21211;-93
2020/12/24 12:00:35;;;;;;;11.10;3.90;;;;;;;14.55;60.94;98757.13;1665197;85;21404;-93
2020/12/24 12:03:02;;;;;;;14.98;4.87;;;;;;;14.69;60.82;98753.90;1669101;86;21182;-92
2020/12/24 12:05:30;;;;;;;9.85;4.05;;;;;;;14.84;60.61;98757.11;1617490;88;21194;-92
2020/12/24 12:07:58;;;;;;;8.88;4.87;;;;;;;14.88;58.01;98752.55;1660039;86;21328;-92
2020/12/24 12:10:35;;;;;;;9.05;4.25;;;;;;;14.99;58.95;98752.05;1649350;84;21420;-93
2020/12/24 12:13:03;;;;;;;9.73;4.70;;;;;;;15.01;57.52;98743.66;1666933;86;21301;-93
2020/12/24 12:15:31;;;;;;;12.70;5.08;;;;;;;15.03;56.99;98749.66;1672244;86;21300;-92
2020/12/24 12:17:58;;;;;;;9.75;5.08;;;;;;;15.03;58.63;98753.59;1669147;86;21607;-93
2020/12/24 12:20:48;;;;;;;11.88;5.97;;;;;;;14.94;58.47;98744.86;1639299;86;21170;-93
2020/12/24 12:23:15;;;;;;;10.68;6.12;;;;;;;14.93;58.88;98738.78;1704336;84;21145;-92